Time;durP1;ratioP1;P1;durP2;ratioP2;P2;SDS_P1;SDS_P2;PMS_P1;PMS_P2;Temp;Humidity;BMP_temperature;BMP_pressure;BME280_temperature;BME280_humidity;BME280_pressure;Samples;Min_cycle;Max_cycle;Signal;HPM_P1;HPM_P2
2021/03/23 00:01:38;;;;;;;15.40;7.57;;;4.00;99.90;;;;;;5087243;28;20520;-89
2021/03/23 00:04:06;;;;;;;11.77;7.53;;;4.00;99.90;;;;;;5048271;28;20487;-92
2021/03/23 00:06:32;;;;;;;13.23;6.60;;;4.00;99.90;;;;;;5049848;28;20458;-89
2021/03/23 00:09:11;;;;;;;15.93;7.57;;;4.00;99.90;;;;;;5073370;23;20493;-90
2021/03/23 00:11:43;;;;;;;14.20;7.10;;;3.70;99.90;;;;;;5066548;22;20486;-90
2021/03/23 00:14:15;;;;;;;12.23;7.20;;;4.00;99.90;;;;;;5090577;22;21236;-89
2021/03/23 00:16:44;;;;;;;12.50;8.03;;;5.20;99.90;;;;;;5083398;22;20496;-90
2021/03/23 00:19:15;;;;;;;11.67;7.17;;;3.90;99.90;;;;;;5083978;22;20521;-91
2021/03/23 00:21:44;;;;;;;14.13;8.20;;;3.90;99.90;;;;;;5087231;22;20477;-90
2021/03/23 00:24:11;;;;;;;15.30;8.00;;;3.80;99.90;;;;;;5104391;22;20471;-91
2021/03/23 00:26:52;;;;;;;14.73;8.37;;;3.90;99.90;;;;;;5098658;22;20477;-90
2021/03/23 00:29:23;;;;;;;16.50;8.60;;;4.20;99.90;;;;;;5083535;22;20466;-89
2021/03/23 00:34:17;;;;;;;16.80;7.90;;;4.10;99.90;;;;;;5088278;22;20482;-90
2021/03/23 00:36:44;;;;;;;13.83;8.07;;;4.00;99.90;;;;;;5088699;22;20333;-90
2021/03/23 00:39:12;;;;;;;15.73;8.70;;;4.20;99.90;;;;;;5074256;28;20438;-90
2021/03/23 00:41:40;;;;;;;11.77;8.43;;;4.00;99.90;;;;;;5076951;28;20466;-89
2021/03/23 00:44:11;;;;;;;14.70;8.40;;;4.00;99.90;;;;;;5076250;28;20441;-91
2021/03/23 00:46:39;;;;;;;15.37;8.00;;;4.00;99.90;;;;;;5080497;22;20486;-90
2021/03/23 00:49:05;;;;;;;20.47;8.60;;;4.00;99.90;;;;;;5077827;28;20462;-90
2021/03/23 00:51:32;;;;;;;13.57;7.20;;;4.00;99.90;;;;;;5077746;28;20438;-90
2021/03/23 00:53:58;;;;;;;15.70;8.43;;;4.00;99.90;;;;;;5074727;28;20461;-90
2021/03/23 00:56:24;;;;;;;13.20;7.23;;;3.80;99.90;;;;;;5078879;28;20434;-90
2021/03/23 01:01:37;;;;;;;14.43;8.50;;;4.50;99.90;;;;;;5106880;22;20506;-90
2021/03/23 01:04:06;;;;;;;19.00;8.73;;;3.90;99.90;;;;;;5091078;22;20231;-90
2021/03/23 01:06:33;;;;;;;13.43;8.63;;;3.90;99.90;;;;;;5079157;22;20469;-92
2021/03/23 01:08:59;;;;;;;12.57;7.93;;;;;;;;;;5090751;22;20537;-90
2021/03/23 01:11:26;;;;;;;15.63;8.67;;;3.80;99.90;;;;;;5102714;22;20508;-89
2021/03/23 01:13:53;;;;;;;13.30;8.70;;;3.90;99.90;;;;;;5084094;22;20490;-91
2021/03/23 01:16:19;;;;;;;16.13;7.87;;;4.00;99.90;;;;;;5077656;28;20434;-90
2021/03/23 01:18:46;;;;;;;12.80;8.63;;;3.90;99.90;;;;;;5072537;28;20457;-90
2021/03/23 01:21:12;;;;;;;14.53;8.30;;;3.90;99.90;;;;;;5078277;28;20482;-91
2021/03/23 01:23:39;;;;;;;17.00;9.00;;;3.90;99.90;;;;;;5074667;28;20426;-91
2021/03/23 01:26:21;;;;;;;14.93;7.73;;;4.10;99.90;;;;;;5084312;22;20549;-89
2021/03/23 01:28:50;;;;;;;20.37;9.23;;;;;;;;;;5084206;22;20462;-88
2021/03/23 01:31:16;;;;;;;18.17;9.50;;;;;;;;;;5075268;28;20439;-90
2021/03/23 01:33:43;;;;;;;20.37;10.13;;;3.90;99.90;;;;;;5083752;22;20490;-90
2021/03/23 01:36:10;;;;;;;14.73;9.30;;;3.90;99.90;;;;;;5079460;22;20496;-91
2021/03/23 01:38:37;;;;;;;17.23;10.40;;;3.90;99.90;;;;;;5080641;22;20478;-89
2021/03/23 01:41:03;;;;;;;18.90;9.30;;;3.90;99.90;;;;;;5080933;22;20502;-90
2021/03/23 01:43:37;;;;;;;18.50;10.33;;;3.90;99.90;;;;;;5084202;22;20478;-91
2021/03/23 01:46:44;;;;;;;15.97;8.90;;;3.70;99.90;;;;;;5079842;22;20429;-90
2021/03/23 01:49:14;;;;;;;17.60;9.90;;;3.90;99.90;;;;;;5069980;28;20517;-91
2021/03/23 01:54:40;;;;;;;15.50;9.37;;;3.80;99.90;;;;;;5089258;22;21694;-91
2021/03/23 01:57:22;;;;;;;13.77;8.63;;;3.80;99.90;;;;;;5085567;22;20482;-91
2021/03/23 01:59:53;;;;;;;15.97;9.87;;;3.80;99.90;;;;;;5076526;22;20472;-91
2021/03/23 02:02:22;;;;;;;20.27;11.00;;;3.80;99.90;;;;;;5075173;28;20419;-91
2021/03/23 02:04:48;;;;;;;17.87;10.40;;;3.80;99.90;;;;;;5072616;28;20414;-91
2021/03/23 02:07:18;;;;;;;17.13;10.30;;;3.80;99.90;;;;;;5092243;22;20476;-90
2021/03/23 02:09:51;;;;;;;15.77;9.00;;;3.90;99.90;;;;;;5088076;22;20568;-91
2021/03/23 02:12:38;;;;;;;22.57;11.10;;;3.80;99.90;;;;;;5080702;22;20442;-90
2021/03/23 02:15:12;;;;;;;18.63;10.93;;;3.80;99.90;;;;;;5080861;22;20449;-90
2021/03/23 02:18:11;;;;;;;18.23;11.70;;;3.80;99.90;;;;;;5073065;22;20470;-90
2021/03/23 02:21:04;;;;;;;21.93;11.53;;;3.80;99.90;;;;;;5080707;22;20566;-91
2021/03/23 02:23:37;;;;;;;16.10;10.30;;;3.80;99.90;;;;;;5086852;22;21038;-90
2021/03/23 02:26:10;;;;;;;22.53;11.23;;;3.80;99.90;;;;;;5086940;22;20486;-90
2021/03/23 02:28:57;;;;;;;19.73;12.53;;;5.90;99.90;;;;;;5081392;22;20485;-89
2021/03/23 02:31:31;;;;;;;18.90;12.20;;;4.00;99.90;;;;;;5086863;22;20585;-90
2021/03/23 02:34:13;;;;;;;25.50;13.87;;;3.90;99.90;;;;;;5086265;22;20479;-90
2021/03/23 02:36:44;;;;;;;25.13;13.37;;;3.90;99.90;;;;;;5100051;22;20508;-90
2021/03/23 02:39:18;;;;;;;25.90;14.43;;;3.90;99.90;;;;;;5086777;22;20483;-90
2021/03/23 02:44:48;;;;;;;23.70;13.67;;;3.80;99.90;;;;;;5097047;22;20484;-91
2021/03/23 02:47:17;;;;;;;27.20;15.10;;;3.80;99.90;;;;;;5095508;28;20426;-91
2021/03/23 02:49:44;;;;;;;23.47;14.20;;;;;;;;;;5079859;22;20475;-90
2021/03/23 02:52:12;;;;;;;21.67;13.10;;;3.80;99.90;;;;;;5075769;22;20502;-90
2021/03/23 02:54:40;;;;;;;28.10;14.57;;;3.80;99.90;;;;;;5068258;22;20467;-91
2021/03/23 02:57:21;;;;;;;27.80;15.43;;;3.70;99.90;;;;;;5069644;22;20489;-91
2021/03/23 02:59:49;;;;;;;23.03;14.30;;;3.80;99.90;;;;;;5069565;22;20552;-91
2021/03/23 03:02:18;;;;;;;30.57;14.50;;;4.20;99.90;;;;;;5062487;22;20497;-90
2021/03/23 03:04:44;;;;;;;28.50;15.57;;;3.80;99.90;;;;;;5053440;28;20497;-89
2021/03/23 03:07:12;;;;;;;27.20;15.50;;;3.70;99.90;;;;;;5062745;22;20490;-90
2021/03/23 03:09:41;;;;;;;27.10;14.83;;;;;;;;;;5067823;22;20559;-89
2021/03/23 03:12:13;;;;;;;31.67;14.93;;;3.70;99.90;;;;;;5062616;22;20487;-90
2021/03/23 03:14:39;;;;;;;31.90;15.03;;;3.90;99.90;;;;;;4977297;28;20467;-91
2021/03/23 03:19:34;;;;;;;25.83;14.33;;;;;;;;;;5089205;23;20536;-91
2021/03/23 03:22:21;;;;;;;29.80;16.10;;;3.70;99.90;;;;;;5086331;23;20231;-90
2021/03/23 03:24:48;;;;;;;24.93;15.17;;;3.70;99.90;;;;;;5085501;23;20496;-89
2021/03/23 03:27:17;;;;;;;26.17;15.93;;;;;;;;;;5094592;23;20509;-90
2021/03/23 03:29:43;;;;;;;31.37;17.77;;;;;;;;;;5071968;23;20510;-89
2021/03/23 03:32:13;;;;;;;29.63;17.00;;;3.80;99.90;;;;;;5092366;23;20470;-91
2021/03/23 03:34:40;;;;;;;28.57;16.17;;;;;;;;;;5084752;23;20475;-90
2021/03/23 03:37:23;;;;;;;27.27;15.30;;;3.80;99.90;;;;;;5085951;23;20463;-90
2021/03/23 03:39:51;;;;;;;27.53;16.20;;;3.80;99.90;;;;;;5086428;23;20482;-89
2021/03/23 03:42:18;;;;;;;31.80;17.57;;;;;;;;;;5062736;23;20469;-91
2021/03/23 03:44:59;;;;;;;29.43;15.50;;;3.80;99.90;;;;;;5106045;22;20597;-90
2021/03/23 03:47:45;;;;;;;26.80;14.83;;;3.80;99.90;;;;;;5100615;22;20486;-90
2021/03/23 03:50:29;;;;;;;31.00;16.73;;;3.70;99.90;;;;;;5108112;22;20477;-91
2021/03/23 03:52:59;;;;;;;25.00;14.07;;;3.60;99.90;;;;;;5220129;22;20581;-89
2021/03/23 03:55:27;;;;;;;34.07;17.30;;;3.80;99.90;;;;;;5075222;28;20426;-89
2021/03/23 03:57:54;;;;;;;28.60;16.33;;;3.70;99.90;;;;;;5075344;28;20431;-90
2021/03/23 04:00:22;;;;;;;28.20;15.37;;;3.70;99.90;;;;;;5075028;28;20454;-90
2021/03/23 04:02:50;;;;;;;28.23;14.63;;;3.80;99.90;;;;;;5076492;28;20433;-88
2021/03/23 04:05:22;;;;;;;27.60;15.77;;;3.70;99.90;;;;;;5116049;22;20466;-90
2021/03/23 04:07:48;;;;;;;34.37;16.43;;;5.10;99.90;;;;;;5023494;23;20473;-90
2021/03/23 04:10:31;;;;;;;27.50;15.47;;;3.60;99.90;;;;;;5020455;22;20520;-89
2021/03/23 04:15:40;;;;;;;29.83;15.63;;;3.50;99.90;;;;;;5098596;22;20618;-90
2021/03/23 04:18:11;;;;;;;29.87;17.07;;;3.60;99.90;;;;;;5105648;22;20988;-90
2021/03/23 04:20:39;;;;;;;26.90;16.13;;;3.70;99.90;;;;;;5102516;22;21813;-89
2021/03/23 04:23:11;;;;;;;28.43;15.00;;;3.60;99.90;;;;;;5112460;22;20491;-91
2021/03/23 04:25:39;;;;;;;39.80;17.20;;;3.60;99.90;;;;;;5120797;22;20493;-89
2021/03/23 04:28:11;;;;;;;36.20;16.90;;;3.70;99.90;;;;;;5108572;22;20465;-90
2021/03/23 04:30:53;;;;;;;29.50;15.90;;;3.80;99.90;;;;;;5104941;22;22210;-89
2021/03/23 04:33:22;;;;;;;30.63;15.50;;;3.70;99.90;;;;;;5091407;28;20426;-90
2021/03/23 04:35:50;;;;;;;32.33;15.67;;;3.50;99.90;;;;;;5098755;28;20402;-90
2021/03/23 04:38:33;;;;;;;23.10;13.93;;;3.70;99.90;;;;;;5141604;22;20465;-91
2021/03/23 04:43:42;;;;;;;25.10;15.30;;;3.90;99.90;;;;;;5109392;22;20489;-90
2021/03/23 04:46:14;;;;;;;36.53;16.67;;;3.60;99.90;;;;;;5093640;22;20521;-91
2021/03/23 04:48:41;;;;;;;23.03;14.33;;;;;;;;;;5053896;28;20431;-90
2021/03/23 04:51:12;;;;;;;24.03;12.90;;;3.60;99.90;;;;;;5095994;22;20506;-89
2021/03/23 04:53:57;;;;;;;26.60;14.30;;;3.70;99.90;;;;;;5046326;23;20496;-91
2021/03/23 04:56:29;;;;;;;30.13;16.90;;;3.60;99.90;;;;;;5091902;22;20470;-90
2021/03/23 04:59:06;;;;;;;29.03;15.27;;;3.70;99.90;;;;;;5105676;23;20497;-89
2021/03/23 05:01:35;;;;;;;27.40;15.73;;;3.70;99.90;;;;;;5106420;23;20478;-90
2021/03/23 05:04:10;;;;;;;27.67;14.67;;;3.60;99.90;;;;;;5056484;23;20498;-90
2021/03/23 05:06:56;;;;;;;31.80;15.57;;;3.70;99.90;;;;;;5090407;23;20482;-91
2021/03/23 05:09:23;;;;;;;29.93;16.20;;;;;;;;;;5097811;23;20465;-90
2021/03/23 05:11:49;;;;;;;25.17;14.87;;;3.70;99.90;;;;;;5075729;28;20453;-91
2021/03/23 05:16:45;;;;;;;27.77;14.23;;;3.80;99.90;;;;;;5088472;23;20488;-89
2021/03/23 05:19:16;;;;;;;25.40;15.07;;;5.50;99.90;;;;;;5075033;22;20486;-89
2021/03/23 05:21:42;;;;;;;32.73;16.10;;;3.60;99.90;;;;;;5078306;22;20499;-90
2021/03/23 05:24:11;;;;;;;27.77;15.97;;;3.70;99.90;;;;;;5070231;23;20462;-90
2021/03/23 05:26:45;;;;;;;28.43;14.50;;;;;;;;;;5085958;22;20456;-89
2021/03/23 05:29:15;;;;;;;32.40;16.30;;;3.70;99.90;;;;;;5068770;22;20486;-91
2021/03/23 05:31:57;;;;;;;27.37;15.90;;;3.70;99.90;;;;;;5049516;22;20493;-91
2021/03/23 05:34:38;;;;;;;31.40;15.70;;;3.70;99.90;;;;;;5048525;23;20508;-90
2021/03/23 05:37:08;;;;;;;34.60;15.17;;;4.90;99.90;;;;;;5075817;23;20469;-91
2021/03/23 05:39:35;;;;;;;30.13;16.53;;;3.60;99.90;;;;;;5088554;23;20477;-90
2021/03/23 05:42:09;;;;;;;28.67;16.30;;;3.70;99.90;;;;;;5097796;22;20491;-90
2021/03/23 05:44:53;;;;;;;25.97;16.47;;;3.70;99.90;;;;;;5088838;28;20441;-90
2021/03/23 05:47:27;;;;;;;29.10;15.87;;;3.70;99.90;;;;;;5081138;22;20490;-91
2021/03/23 05:50:00;;;;;;;30.37;15.10;;;3.70;99.90;;;;;;5067226;28;20445;-90
2021/03/23 05:52:34;;;;;;;34.53;16.30;;;3.70;99.90;;;;;;5008611;28;20461;-90
2021/03/23 05:55:06;;;;;;;31.73;16.73;;;3.80;99.90;;;;;;5034769;23;20485;-90
2021/03/23 05:57:36;;;;;;;28.03;16.50;;;3.80;99.90;;;;;;5088185;28;20437;-90
2021/03/23 06:00:08;;;;;;;29.90;16.17;;;3.80;99.90;;;;;;5087044;28;20430;-90
2021/03/23 06:02:44;;;;;;;31.43;17.03;;;3.80;99.90;;;;;;5083782;28;20456;-91
2021/03/23 06:05:25;;;;;;;30.90;16.67;;;3.90;99.90;;;;;;5090609;28;20958;-90
2021/03/23 06:07:52;;;;;;;29.50;17.43;;;3.90;99.90;;;;;;5089284;28;20425;-90
2021/03/23 06:12:54;;;;;;;33.30;17.17;;;3.90;99.90;;;;;;5098952;22;20521;-91
2021/03/23 06:15:29;;;;;;;31.67;17.20;;;3.90;99.90;;;;;;5081522;22;20238;-89
2021/03/23 06:18:00;;;;;;;31.67;16.73;;;3.90;99.90;;;;;;5070114;28;20932;-91
2021/03/23 06:20:54;;;;;;;27.83;15.70;;;5.10;99.90;;;;;;5074020;28;20464;-91
2021/03/23 06:23:50;;;;;;;32.73;16.97;;;4.00;99.90;;;;;;5073567;23;20490;-91
2021/03/23 06:26:35;;;;;;;30.10;17.13;;;4.10;99.90;;;;;;5069542;28;20427;-89
2021/03/23 06:29:07;;;;;;;33.80;18.57;;;4.10;99.90;;;;;;5067056;28;20439;-90
2021/03/23 06:31:58;;;;;;;35.00;17.93;;;4.10;99.90;;;;;;5068624;28;20447;-89
2021/03/23 06:34:30;;;;;;;33.10;17.30;;;4.20;99.90;;;;;;5065639;22;20487;-89
2021/03/23 06:36:56;;;;;;;29.83;17.53;;;4.20;99.90;;;;;;5019054;28;20452;-92
2021/03/23 06:39:23;;;;;;;29.73;15.77;;;4.20;99.90;;;;;;4947245;28;20456;-93
2021/03/23 06:41:57;;;;;;;28.63;16.07;;;4.30;99.90;;;;;;4935566;29;20899;-90
2021/03/23 06:47:38;;;;;;;31.57;17.23;;;4.30;99.90;;;;;;4944637;28;20953;-96
2021/03/23 06:50:24;;;;;;;28.90;17.37;;;4.40;99.90;;;;;;4917589;29;20452;-93
2021/03/23 06:53:07;;;;;;;29.10;17.53;;;4.50;99.90;;;;;;5005745;28;20436;-96
2021/03/23 06:55:34;;;;;;;33.53;17.43;;;;;;;;;;4955156;28;20934;-91
2021/03/23 06:58:26;;;;;;;31.07;16.77;;;4.50;99.90;;;;;;4977291;28;20451;-90
2021/03/23 07:01:16;;;;;;;29.47;17.40;;;4.50;99.90;;;;;;4991279;28;20521;-93
2021/03/23 07:03:45;;;;;;;31.37;17.63;;;4.30;99.90;;;;;;4965794;28;20443;-90
2021/03/23 07:06:30;;;;;;;34.77;18.33;;;4.70;99.90;;;;;;4962526;28;20522;-89
2021/03/23 07:09:21;;;;;;;35.03;18.60;;;4.70;99.90;;;;;;5001236;28;20439;-90
2021/03/23 07:11:54;;;;;;;32.90;19.30;;;4.60;99.90;;;;;;5005568;28;20477;-91
2021/03/23 07:14:41;;;;;;;29.97;18.03;;;4.70;99.90;;;;;;4976119;28;20535;-91
2021/03/23 07:17:42;;;;;;;32.10;17.50;;;4.60;99.90;;;;;;4990923;28;20444;-91
2021/03/23 07:20:25;;;;;;;29.47;17.60;;;4.70;99.90;;;;;;4992799;28;20458;-90
2021/03/23 07:22:53;;;;;;;36.50;17.57;;;4.80;99.90;;;;;;4954770;28;20451;-92
2021/03/23 07:25:34;;;;;;;31.73;17.97;;;5.90;99.90;;;;;;4986620;28;20436;-92
2021/03/23 07:28:19;;;;;;;30.57;16.90;;;5.50;99.90;;;;;;4943632;28;20954;-93
2021/03/23 07:30:50;;;;;;;29.43;17.57;;;5.10;99.90;;;;;;4991365;28;20494;-89
2021/03/23 07:33:23;;;;;;;39.50;20.20;;;5.00;99.90;;;;;;4985634;28;20448;-92
2021/03/23 07:35:50;;;;;;;31.40;19.20;;;5.20;99.90;;;;;;5016275;28;20482;-94
2021/03/23 07:38:28;;;;;;;32.73;17.00;;;5.30;99.90;;;;;;5030708;28;20474;-93
2021/03/23 07:40:55;;;;;;;31.73;19.00;;;5.30;99.90;;;;;;5034068;28;20474;-92
2021/03/23 07:43:42;;;;;;;33.20;17.73;;;5.30;99.90;;;;;;5028292;28;20444;-90
2021/03/23 07:46:15;;;;;;;31.30;17.67;;;5.30;99.90;;;;;;5035317;28;20454;-92
2021/03/23 07:48:47;;;;;;;32.83;18.60;;;5.40;99.90;;;;;;5021119;28;20451;-93
2021/03/23 07:51:35;;;;;;;27.50;18.57;;;5.40;99.90;;;;;;5035053;28;20530;-91
2021/03/23 07:54:22;;;;;;;31.63;19.20;;;5.40;99.90;;;;;;5023781;28;20443;-93
2021/03/23 07:57:04;;;;;;;32.33;16.47;;;5.60;99.90;;;;;;5033226;28;20938;-90
2021/03/23 08:00:04;;;;;;;29.27;18.27;;;5.50;99.90;;;;;;5034253;28;20454;-95
2021/03/23 08:03:00;;;;;;;31.30;17.40;;;5.60;99.90;;;;;;4922742;29;20468;-90
2021/03/23 08:05:36;;;;;;;31.40;17.03;;;5.70;99.90;;;;;;5032269;28;20958;-88
2021/03/23 08:08:17;;;;;;;32.83;17.83;;;5.70;99.90;;;;;;5036213;28;20485;-93
2021/03/23 08:10:55;;;;;;;33.60;17.27;;;5.70;99.90;;;;;;5059682;23;20490;-93
2021/03/23 08:13:43;;;;;;;30.93;18.50;;;5.70;99.90;;;;;;5056656;28;20454;-92
2021/03/23 08:16:21;;;;;;;27.70;15.57;;;5.90;99.90;;;;;;5054768;28;20442;-92
2021/03/23 08:19:32;;;;;;;28.63;17.50;;;6.00;99.90;;;;;;5078510;28;20441;-93
2021/03/23 08:22:18;;;;;;;28.90;16.00;;;6.00;99.90;;;;;;5056689;28;20516;-93
2021/03/23 08:24:59;;;;;;;29.13;16.90;;;5.80;99.90;;;;;;5075999;28;20442;-93
2021/03/23 08:27:43;;;;;;;24.77;15.87;;;6.10;99.90;;;;;;5056211;28;20459;-93
2021/03/23 08:30:35;;;;;;;28.30;16.20;;;6.20;99.90;;;;;;5067503;28;20469;-93
2021/03/23 08:33:13;;;;;;;31.53;18.00;;;6.30;99.90;;;;;;5068541;28;20450;-92
2021/03/23 08:36:04;;;;;;;29.80;16.97;;;6.10;99.90;;;;;;5073746;28;21027;-91
2021/03/23 08:38:47;;;;;;;26.67;15.20;;;6.20;99.90;;;;;;4978653;28;21055;-94
2021/03/23 08:41:21;;;;;;;26.37;16.47;;;6.40;99.90;;;;;;5066175;28;20478;-94
2021/03/23 08:43:49;;;;;;;25.90;15.23;;;6.40;99.90;;;;;;5098313;28;20440;-94
2021/03/23 08:46:18;;;;;;;27.60;15.07;;;6.30;99.90;;;;;;5100107;28;20453;-94
2021/03/23 08:48:49;;;;;;;26.27;13.83;;;6.50;99.90;;;;;;5097625;28;20441;-93
2021/03/23 08:51:19;;;;;;;24.50;16.60;;;6.70;99.90;;;;;;5074103;28;20960;-93
2021/03/23 08:53:56;;;;;;;21.60;12.60;;;6.70;99.90;;;;;;5076451;28;20460;-91
2021/03/23 08:57:01;;;;;;;25.80;14.60;;;6.60;99.90;;;;;;5079086;28;20446;-92
2021/03/23 08:59:51;;;;;;;24.07;14.37;;;6.60;99.90;;;;;;5063653;28;20457;-91
2021/03/23 09:02:37;;;;;;;23.83;13.70;;;6.90;99.90;;;;;;5057432;28;20478;-95
2021/03/23 09:05:04;;;;;;;27.33;14.93;;;7.10;99.90;;;;;;5066121;28;20458;-93
2021/03/23 09:07:33;;;;;;;26.23;15.00;;;7.20;99.90;;;;;;5062700;28;20439;-92
2021/03/23 09:10:02;;;;;;;27.90;15.90;;;7.40;99.90;;;;;;5069036;28;20479;-94
2021/03/23 09:12:48;;;;;;;23.03;14.73;;;7.50;99.90;;;;;;5070163;28;20458;-93
2021/03/23 09:15:23;;;;;;;27.00;16.30;;;7.80;99.90;;;;;;5070773;28;20976;-93
2021/03/23 09:18:02;;;;;;;23.70;14.30;;;7.80;99.90;;;;;;5078437;23;20489;-94
2021/03/23 09:20:55;;;;;;;25.83;15.03;;;7.80;99.90;;;;;;5045930;28;20450;-93
2021/03/23 09:23:43;;;;;;;23.90;13.43;;;7.40;99.90;;;;;;5047014;28;20450;-95
2021/03/23 09:26:44;;;;;;;23.57;14.30;;;7.20;99.90;;;;;;5060434;28;20439;-93
2021/03/23 09:29:39;;;;;;;24.13;14.47;;;7.10;99.90;;;;;;5069579;28;20467;-94
2021/03/23 09:32:10;;;;;;;27.20;14.33;;;7.20;99.90;;;;;;5087206;28;20801;-93
2021/03/23 09:35:14;;;;;;;22.87;12.13;;;7.30;99.90;;;;;;5082393;28;20442;-94
2021/03/23 09:40:40;;;;;;;12.90;8.17;;;7.10;99.90;;;;;;5057475;23;20551;-92
2021/03/23 09:43:39;;;;;;;13.10;7.33;;;7.40;99.90;;;;;;4984250;28;20205;-92
2021/03/23 09:46:41;;;;;;;14.53;8.87;;;7.50;99.90;;;;;;5044284;28;20452;-92
2021/03/23 09:49:22;;;;;;;16.87;10.50;;;7.70;99.90;;;;;;5027002;28;20454;-92
2021/03/23 09:52:06;;;;;;;16.37;9.40;;;7.90;99.90;;;;;;5044186;28;20428;-95
2021/03/23 09:54:35;;;;;;;16.73;10.03;;;7.80;99.90;;;;;;5043850;28;20460;-93
2021/03/23 09:57:06;;;;;;;17.80;9.93;;;8.00;99.90;;;;;;5044259;28;20543;-95
2021/03/23 09:59:34;;;;;;;13.60;8.97;;;8.00;99.90;;;;;;5043740;28;20902;-94
2021/03/23 10:02:32;;;;;;;15.83;8.40;;;8.10;99.90;;;;;;5047229;28;20474;-94
2021/03/23 10:05:16;;;;;;;12.90;7.17;;;8.20;99.90;;;;;;5046255;28;20435;-94
2021/03/23 10:08:34;;;;;;;12.37;7.60;;;7.90;99.90;;;;;;5049718;28;20470;-93
2021/03/23 10:11:45;;;;;;;8.50;6.10;;;8.00;99.90;;;;;;5049125;28;20455;-92
2021/03/23 10:14:41;;;;;;;7.93;5.60;;;7.70;99.90;;;;;;5111369;23;20486;-95
2021/03/23 10:17:14;;;;;;;9.70;4.10;;;7.60;99.90;;;;;;5046304;28;21026;-95
2021/03/23 10:19:45;;;;;;;5.47;3.90;;;7.70;99.90;;;;;;5046389;28;20439;-93
2021/03/23 10:22:16;;;;;;;6.53;3.70;;;7.60;99.90;;;;;;5045551;28;20487;-92
2021/03/23 10:24:45;;;;;;;5.00;3.30;;;7.40;99.90;;;;;;5046111;28;20462;-93
2021/03/23 10:27:19;;;;;;;5.17;3.90;;;7.40;99.90;;;;;;5031462;28;20450;-92
2021/03/23 10:30:06;;;;;;;4.10;3.20;;;7.40;99.90;;;;;;5049496;28;20466;-93
2021/03/23 10:32:45;;;;;;;6.43;3.33;;;7.60;99.90;;;;;;5021845;28;20476;-93
2021/03/23 10:35:28;;;;;;;6.33;3.40;;;7.60;99.90;;;;;;5052916;28;20457;-95
2021/03/23 10:38:14;;;;;;;8.97;5.30;;;8.40;99.90;;;;;;5060286;28;20443;-95
2021/03/23 10:40:42;;;;;;;8.03;5.40;;;7.50;99.90;;;;;;5054163;28;20493;-93
2021/03/23 10:43:13;;;;;;;7.80;4.53;;;7.50;99.90;;;;;;5054133;28;20451;-95
2021/03/23 10:45:42;;;;;;;6.73;4.23;;;7.40;99.90;;;;;;5055113;28;20455;-93
2021/03/23 10:48:17;;;;;;;8.77;4.90;;;7.60;99.90;;;;;;5056198;28;20529;-94
2021/03/23 10:50:45;;;;;;;8.30;4.70;;;7.70;99.90;;;;;;5055008;28;20445;-95
2021/03/23 10:53:20;;;;;;;10.63;4.80;;;7.50;99.90;;;;;;5054476;28;20453;-94
2021/03/23 10:55:48;;;;;;;6.00;4.43;;;7.70;99.90;;;;;;5050982;28;20462;-94
2021/03/23 10:58:18;;;;;;;6.83;4.63;;;7.60;99.90;;;;;;5054188;28;20801;-94
2021/03/23 11:00:55;;;;;;;5.30;4.00;;;7.70;99.90;;;;;;5050195;28;21048;-92
2021/03/23 11:03:35;;;;;;;9.83;5.30;;;7.60;99.90;;;;;;5066115;28;20463;-91
2021/03/23 11:06:03;;;;;;;9.37;4.80;;;7.60;99.90;;;;;;5047068;28;20455;-92
2021/03/23 11:08:31;;;;;;;7.17;4.70;;;7.50;99.90;;;;;;5049182;28;20470;-93
2021/03/23 11:11:03;;;;;;;6.63;4.80;;;9.00;99.90;;;;;;4982085;28;20493;-95
2021/03/23 11:13:29;;;;;;;10.50;5.60;;;7.40;99.90;;;;;;5025117;23;20503;-92
2021/03/23 11:15:59;;;;;;;6.77;5.10;;;;;;;;;;5040527;28;20451;-91
2021/03/23 11:18:30;;;;;;;10.10;5.03;;;7.20;99.90;;;;;;5041050;28;20451;-92
2021/03/23 11:21:00;;;;;;;8.73;4.97;;;7.50;99.90;;;;;;5062581;23;20487;-94
2021/03/23 11:23:34;;;;;;;6.00;4.50;;;7.50;99.90;;;;;;5057169;28;20450;-92
2021/03/23 11:26:01;;;;;;;7.87;5.03;;;7.70;99.90;;;;;;5050951;28;20854;-93
2021/03/23 11:28:29;;;;;;;8.90;5.80;;;8.00;99.90;;;;;;5055770;28;20552;-91
2021/03/23 11:30:56;;;;;;;7.47;4.80;;;7.70;99.90;;;;;;5076370;28;20445;-94
2021/03/23 11:33:22;;;;;;;7.73;5.20;;;7.80;99.90;;;;;;5069882;28;20529;-93
2021/03/23 11:35:50;;;;;;;7.00;5.10;;;7.80;99.90;;;;;;5067289;28;20545;-92
2021/03/23 11:38:26;;;;;;;7.83;4.97;;;7.70;99.90;;;;;;5077516;28;20447;-92
2021/03/23 11:40:55;;;;;;;10.37;5.60;;;7.60;99.90;;;;;;5076921;28;20479;-91
2021/03/23 11:43:25;;;;;;;7.20;5.40;;;8.30;99.90;;;;;;5070091;28;20485;-92
2021/03/23 11:45:53;;;;;;;12.27;5.63;;;7.50;99.90;;;;;;5046696;28;20431;-94
2021/03/23 11:48:21;;;;;;;9.27;6.80;;;7.60;99.90;;;;;;5036978;28;20523;-90
2021/03/23 11:50:51;;;;;;;8.80;5.50;;;7.50;99.90;;;;;;5021011;28;20951;-94
2021/03/23 11:53:17;;;;;;;9.30;5.77;;;7.60;99.90;;;;;;5039313;28;20466;-94
2021/03/23 11:55:46;;;;;;;8.90;6.00;;;7.80;99.90;;;;;;5038545;28;20914;-95
2021/03/23 11:58:16;;;;;;;7.77;5.60;;;7.70;99.90;;;;;;5048568;28;20466;-95
2021/03/23 12:00:44;;;;;;;8.00;5.17;;;7.90;99.90;;;;;;5057338;28;20526;-87
2021/03/23 12:03:11;;;;;;;7.50;5.90;;;7.90;99.90;;;;;;5057723;28;20443;-89
2021/03/23 12:05:38;;;;;;;9.83;5.63;;;7.90;99.90;;;;;;5052878;28;20453;-88
2021/03/23 12:08:27;;;;;;;9.00;5.80;;;7.90;99.90;;;;;;5056323;28;20971;-94
2021/03/23 12:11:00;;;;;;;42.77;27.63;;;8.00;99.90;;;;;;5057476;28;20457;-91
2021/03/23 12:13:38;;;;;;;22.40;15.73;;;7.70;99.90;;;;;;5055728;28;20798;-92
2021/03/23 12:16:10;;;;;;;10.90;7.20;;;7.60;99.90;;;;;;5052378;28;20442;-89
2021/03/23 12:18:38;;;;;;;11.97;7.90;;;7.60;99.90;;;;;;5056476;28;20455;-89
2021/03/23 12:21:07;;;;;;;14.10;9.60;;;7.80;99.90;;;;;;5055477;28;20493;-90
2021/03/23 12:23:33;;;;;;;11.10;7.43;;;7.90;99.90;;;;;;5048878;28;20455;-87
2021/03/23 12:26:00;;;;;;;9.53;6.43;;;7.90;99.90;;;;;;5055931;28;20795;-90
2021/03/23 12:28:27;;;;;;;8.33;5.43;;;7.90;99.90;;;;;;5055691;28;20794;-89
2021/03/23 12:30:54;;;;;;;9.40;5.77;;;8.20;99.90;;;;;;5056582;28;20818;-93
2021/03/23 12:33:21;;;;;;;11.53;6.30;;;8.00;99.90;;;;;;5056629;28;20809;-91
2021/03/23 12:35:50;;;;;;;8.37;5.47;;;8.00;99.90;;;;;;5041540;28;20935;-90
2021/03/23 12:38:19;;;;;;;10.07;5.93;;;8.00;99.90;;;;;;5042407;28;20452;-90
2021/03/23 12:40:45;;;;;;;11.43;6.80;;;7.80;99.90;;;;;;5033799;28;20494;-91
2021/03/23 12:43:21;;;;;;;10.13;5.90;;;7.90;99.90;;;;;;5047703;28;20438;-90
2021/03/23 12:45:48;;;;;;;8.20;6.27;;;7.80;99.90;;;;;;5052081;28;20460;-89
2021/03/23 12:48:16;;;;;;;7.10;5.83;;;7.70;99.90;;;;;;5044226;28;20538;-92
2021/03/23 12:50:43;;;;;;;12.00;6.27;;;7.80;99.90;;;;;;5032165;28;20443;-87
2021/03/23 12:53:13;;;;;;;7.80;5.17;;;7.80;99.90;;;;;;5037009;28;20447;-87
2021/03/23 12:55:43;;;;;;;11.13;6.90;;;7.80;99.90;;;;;;5012927;28;20439;-91
2021/03/23 12:58:31;;;;;;;13.20;8.07;;;7.80;99.90;;;;;;5035643;28;20486;-93
2021/03/23 13:00:58;;;;;;;9.50;6.70;;;7.80;99.90;;;;;;5056344;28;21003;-90
2021/03/23 13:03:25;;;;;;;11.03;6.83;;;7.80;99.90;;;;;;5050756;28;20455;-91
2021/03/23 13:05:53;;;;;;;12.03;7.67;;;7.50;99.90;;;;;;5043466;28;20938;-92
2021/03/23 13:08:28;;;;;;;9.27;6.50;;;7.70;99.90;;;;;;5050097;28;20435;-92
2021/03/23 13:11:07;;;;;;;12.17;8.00;;;7.70;99.90;;;;;;5059128;28;20469;-93
2021/03/23 13:13:39;;;;;;;13.13;7.60;;;7.80;99.90;;;;;;5046721;28;20812;-94
2021/03/23 13:16:08;;;;;;;9.93;7.33;;;7.60;99.90;;;;;;5044867;28;20443;-92
2021/03/23 13:18:38;;;;;;;12.07;7.57;;;8.10;99.90;;;;;;5038268;28;20443;-91
2021/03/23 13:21:09;;;;;;;12.83;7.23;;;8.40;99.90;;;;;;5042824;28;20949;-92
2021/03/23 13:23:39;;;;;;;15.60;6.33;;;8.20;99.90;;;;;;5049158;28;20440;-92
2021/03/23 13:26:09;;;;;;;10.10;7.20;;;;;;;;;;5052108;28;20473;-90
2021/03/23 13:28:47;;;;;;;9.23;6.60;;;8.00;99.90;;;;;;5049643;28;20949;-90
2021/03/23 13:31:15;;;;;;;6.80;5.40;;;8.00;99.90;;;;;;5048791;28;20505;-90
2021/03/23 13:33:45;;;;;;;9.33;7.10;;;7.90;99.90;;;;;;5040932;28;20485;-91
2021/03/23 13:36:30;;;;;;;8.87;6.43;;;7.50;99.90;;;;;;5037592;28;20443;-94
2021/03/23 13:38:59;;;;;;;10.10;7.50;;;7.40;99.90;;;;;;5041234;28;20454;-91
2021/03/23 13:41:25;;;;;;;12.20;7.80;;;7.50;99.90;;;;;;5036896;28;20487;-93
2021/03/23 13:43:55;;;;;;;14.97;7.40;;;7.40;99.90;;;;;;5038287;28;20455;-93
2021/03/23 13:46:32;;;;;;;24.17;20.83;;;7.50;99.90;;;;;;5031023;28;20451;-93
2021/03/23 13:49:02;;;;;;;10.67;7.07;;;7.60;99.90;;;;;;5038289;28;20527;-89
2021/03/23 13:51:28;;;;;;;10.00;7.23;;;7.40;99.90;;;;;;5041116;28;20477;-92
2021/03/23 13:53:54;;;;;;;10.97;7.20;;;7.40;99.90;;;;;;5034046;28;20451;-93
2021/03/23 13:56:20;;;;;;;10.80;7.60;;;7.60;99.90;;;;;;4995292;28;20457;-92